Time,TemperatureF,DewpointF,PressureIn,WindDirection,WindDirectionDegrees,WindSpeedMPH,WindSpeedGustMPH,Humidity,HourlyPrecipIn,Conditions,Clouds,dailyrainin,SolarRadiationWatts/m^2,SoftwareType,DateUTC
2013-03-30 00:12:00,60.0,5.0,-100.00,SSW,205,0.0,0.0,11,0.00,,,0.03,0.000000,,2013-03-30 10:12:00,
2013-03-30 00:23:00,60.0,5.0,-100.00,SSW,205,0.0,0.0,11,0.00,,,0.03,0.000000,,2013-03-30 10:23:00,
2013-03-30 00:32:00,60.0,5.0,-100.00,SSW,205,0.0,0.0,11,0.00,,,0.03,0.000000,,2013-03-30 10:32:00,
2013-03-30 00:42:00,60.0,5.0,-100.00,SSW,205,0.0,0.0,11,0.00,,,0.03,0.000000,,2013-03-30 10:42:00,
2013-03-30 00:51:00,60.0,7.0,-100.00,SSW,206,0.0,0.0,12,0.00,,,0.02,0.000000,,2013-03-30 10:51:00,
2013-03-30 01:12:00,60.0,7.0,-100.00,SSW,206,0.0,0.0,12,0.00,,,0.02,0.000000,,2013-03-30 11:12:00,
2013-03-30 01:22:00,60.0,7.0,-100.00,SSW,206,0.0,0.0,12,0.00,,,0.02,0.000000,,2013-03-30 11:22:00,
2013-03-30 01:32:00,60.0,7.0,-100.00,SSW,206,0.0,0.0,12,0.00,,,0.02,0.000000,,2013-03-30 11:32:00,
2013-03-30 01:42:00,60.0,7.0,-100.00,SSW,206,0.0,0.0,12,0.00,,,0.02,0.000000,,2013-03-30 11:42:00,
2013-03-30 01:51:00,61.0,8.0,-100.00,SSW,211,0.0,0.0,12,0.00,,,0.02,0.000000,,2013-03-30 11:51:00,
2013-03-30 02:22:00,61.0,8.0,-100.00,SSW,211,0.0,0.0,12,0.00,,,0.02,0.000000,,2013-03-30 12:22:00,
2013-03-30 02:32:00,61.0,8.0,-100.00,SSW,211,0.0,0.0,12,0.00,,,0.02,0.000000,,2013-03-30 12:32:00,
2013-03-30 02:42:00,61.0,8.0,-100.00,SSW,211,0.0,0.0,12,0.00,,,0.02,0.000000,,2013-03-30 12:42:00,
2013-03-30 02:51:00,61.0,8.0,-100.00,SSW,211,0.0,0.0,12,0.00,,,0.02,0.000000,,2013-03-30 12:51:00,
2013-03-30 03:12:00,61.0,8.0,-100.00,SSW,211,0.0,0.0,12,0.00,,,0.02,0.000000,,2013-03-30 13:12:00,
2013-03-30 03:22:00,61.0,8.0,-100.00,SSW,211,0.0,0.0,12,0.00,,,0.02,0.000000,,2013-03-30 13:22:00,
2013-03-30 03:32:00,61.0,8.0,-100.00,SSW,211,0.0,0.0,12,0.00,,,0.02,0.000000,,2013-03-30 13:32:00,
2013-03-30 03:42:00,61.0,8.0,-100.00,SSW,211,0.0,0.0,12,0.00,,,0.02,0.000000,,2013-03-30 13:42:00,
2013-03-30 03:51:00,62.0,9.0,-100.00,SSW,209,0.0,0.0,12,0.00,,,0.02,0.000000,,2013-03-30 13:51:00,
2013-03-30 04:22:00,62.0,9.0,-100.00,SSW,209,0.0,0.0,12,0.00,,,0.02,0.000000,,2013-03-30 14:22:00,
2013-03-30 04:32:00,62.0,9.0,-100.00,SSW,209,0.0,0.0,12,0.00,,,0.02,0.000000,,2013-03-30 14:32:00,
2013-03-30 04:42:00,62.0,9.0,-100.00,SSW,209,0.0,0.0,12,0.00,,,0.02,0.000000,,2013-03-30 14:42:00,
2013-03-30 04:51:00,62.0,11.0,-100.00,NW,305,0.0,0.0,13,0.00,,,0.02,0.000000,,2013-03-30 14:51:00,
2013-03-30 05:12:00,62.0,11.0,-100.00,NW,305,0.0,0.0,13,0.00,,,0.02,0.000000,,2013-03-30 15:12:00,
2013-03-30 05:22:00,62.0,11.0,-100.00,NW,305,0.0,0.0,13,0.00,,,0.02,0.000000,,2013-03-30 15:22:00,
2013-03-30 05:33:00,62.0,11.0,-100.00,NW,305,0.0,0.0,13,0.00,,,0.02,0.000000,,2013-03-30 15:33:00,
2013-03-30 05:42:00,62.0,11.0,-100.00,NW,305,0.0,0.0,13,0.00,,,0.02,0.000000,,2013-03-30 15:42:00,
2013-03-30 05:51:00,62.0,12.0,-100.00,WSW,258,0.0,0.0,14,0.00,,,0.02,0.000000,,2013-03-30 15:51:00,
2013-03-30 06:13:00,62.0,12.0,-100.00,WSW,258,0.0,0.0,14,0.00,,,0.02,0.000000,,2013-03-30 16:13:00,
2013-03-30 06:23:00,62.0,12.0,-100.00,WSW,258,0.0,0.0,14,0.00,,,0.02,0.000000,,2013-03-30 16:23:00,
2013-03-30 06:32:00,62.0,12.0,-100.00,WSW,258,0.0,0.0,14,0.00,,,0.02,0.000000,,2013-03-30 16:32:00,
2013-03-30 06:42:00,62.0,12.0,-100.00,WSW,258,0.0,0.0,14,0.00,,,0.02,0.000000,,2013-03-30 16:42:00,
2013-03-30 06:51:00,63.0,15.0,-100.00,WSW,252,0.0,5.0,15,0.00,,,0.02,3.000000,,2013-03-30 16:51:00,
2013-03-30 07:22:00,63.0,15.0,-100.00,WSW,252,0.0,5.0,15,0.00,,,0.02,3.000000,,2013-03-30 17:22:00,
2013-03-30 07:32:00,63.0,15.0,-100.00,WSW,252,0.0,5.0,15,0.00,,,0.02,3.000000,,2013-03-30 17:32:00,
2013-03-30 07:42:00,63.0,15.0,-100.00,WSW,252,0.0,5.0,15,0.00,,,0.02,3.000000,,2013-03-30 17:42:00,
2013-03-30 07:51:00,65.0,16.0,-100.00,WSW,258,0.0,2.0,15,0.00,,,0.02,53.000000,,2013-03-30 17:51:00,
2013-03-30 08:22:00,65.0,16.0,-100.00,WSW,258,0.0,2.0,15,0.00,,,0.02,53.000000,,2013-03-30 18:22:00,
2013-03-30 08:32:00,65.0,16.0,-100.00,WSW,258,0.0,2.0,15,0.00,,,0.02,53.000000,,2013-03-30 18:32:00,
2013-03-30 08:42:00,65.0,16.0,-100.00,WSW,258,0.0,2.0,15,0.00,,,0.02,53.000000,,2013-03-30 18:42:00,
2013-03-30 08:51:00,68.0,7.0,-100.00,WSW,246,1.0,5.0,9,0.00,,,0.02,147.000000,,2013-03-30 18:51:00,
2013-03-30 09:13:00,68.0,7.0,-100.00,WSW,246,1.0,5.0,9,0.00,,,0.02,147.000000,,2013-03-30 19:13:00,
2013-03-30 09:22:00,68.0,7.0,-100.00,WSW,246,1.0,5.0,9,0.00,,,0.02,147.000000,,2013-03-30 19:22:00,
2013-03-30 09:32:00,68.0,7.0,-100.00,WSW,246,1.0,5.0,9,0.00,,,0.02,147.000000,,2013-03-30 19:32:00,
2013-03-30 09:42:00,68.0,7.0,-100.00,WSW,246,1.0,5.0,9,0.00,,,0.02,147.000000,,2013-03-30 19:42:00,
2013-03-30 09:51:00,72.0,-26.0,-100.00,ENE,65,2.0,8.0,0,0.00,,,0.01,507.000000,,2013-03-30 19:51:00,
2013-03-30 10:22:00,72.0,-26.0,-100.00,ENE,65,2.0,8.0,0,0.00,,,0.01,507.000000,,2013-03-30 20:22:00,
2013-03-30 10:32:00,72.0,-26.0,-100.00,ENE,65,2.0,8.0,0,0.00,,,0.01,507.000000,,2013-03-30 20:32:00,
2013-03-30 10:42:00,72.0,-26.0,-100.00,ENE,65,2.0,8.0,0,0.00,,,0.01,507.000000,,2013-03-30 20:42:00,
2013-03-30 10:51:00,72.0,-26.0,-100.00,NNE,16,3.0,9.0,0,0.00,,,0.00,371.000000,,2013-03-30 20:51:00,
2013-03-30 11:12:00,72.0,-26.0,-100.00,NNE,16,3.0,9.0,0,0.00,,,0.00,371.000000,,2013-03-30 21:12:00,
2013-03-30 11:22:00,72.0,-26.0,-100.00,NNE,16,3.0,9.0,0,0.00,,,0.00,371.000000,,2013-03-30 21:22:00,
2013-03-30 11:33:00,72.0,-26.0,-100.00,NNE,16,3.0,9.0,0,0.00,,,0.00,371.000000,,2013-03-30 21:33:00,
2013-03-30 11:43:00,72.0,-26.0,-100.00,NNE,16,3.0,9.0,0,0.00,,,0.00,371.000000,,2013-03-30 21:43:00,
2013-03-30 11:51:00,69.0,-28.0,-100.00,East,83,2.0,8.0,0,0.03,,,0.03,581.000000,,2013-03-30 21:51:00,
2013-03-30 12:12:00,69.0,-28.0,-100.00,East,83,2.0,8.0,0,0.03,,,0.03,581.000000,,2013-03-30 22:12:00,
2013-03-30 12:23:00,69.0,-28.0,-100.00,East,83,2.0,8.0,0,0.03,,,0.03,581.000000,,2013-03-30 22:23:00,
2013-03-30 12:32:00,69.0,-28.0,-100.00,East,83,2.0,8.0,0,0.03,,,0.03,581.000000,,2013-03-30 22:32:00,
2013-03-30 12:43:00,69.0,-28.0,-100.00,East,83,2.0,8.0,0,0.03,,,0.03,581.000000,,2013-03-30 22:43:00,
2013-03-30 12:51:00,76.0,-23.0,-100.00,NNE,22,3.0,7.0,0,0.00,,,0.03,1011.000000,,2013-03-30 22:51:00,
2013-03-30 13:12:00,76.0,-23.0,-100.00,NNE,22,3.0,7.0,0,0.00,,,0.03,1011.000000,,2013-03-30 23:12:00,
2013-03-30 13:22:00,76.0,-23.0,-100.00,NNE,22,3.0,7.0,0,0.00,,,0.03,1011.000000,,2013-03-30 23:22:00,
2013-03-30 13:32:00,76.0,-23.0,-100.00,NNE,22,3.0,7.0,0,0.00,,,0.03,1011.000000,,2013-03-30 23:32:00,
2013-03-30 13:42:00,76.0,-23.0,-100.00,NNE,22,3.0,7.0,0,0.00,,,0.03,1011.000000,,2013-03-30 23:42:00,
2013-03-30 13:51:00,76.0,-23.0,-100.00,NNE,30,3.0,7.0,0,0.00,,,0.03,971.000000,,2013-03-30 23:51:00,
2013-03-30 14:12:00,76.0,-23.0,-100.00,NNE,30,3.0,7.0,0,0.00,,,0.03,971.000000,,2013-03-31 00:12:00,
2013-03-30 14:22:00,76.0,-23.0,-100.00,NNE,30,3.0,7.0,0,0.00,,,0.03,971.000000,,2013-03-31 00:22:00,
2013-03-30 14:32:00,76.0,-23.0,-100.00,NNE,30,3.0,7.0,0,0.00,,,0.03,971.000000,,2013-03-31 00:32:00,
2013-03-30 14:42:00,76.0,-23.0,-100.00,NNE,30,3.0,7.0,0,0.00,,,0.03,971.000000,,2013-03-31 00:42:00,
2013-03-30 14:51:00,74.0,-25.0,-100.00,NNE,13,4.0,11.0,0,0.00,,,0.03,866.000000,,2013-03-31 00:51:00,
2013-03-30 15:22:00,74.0,-25.0,-100.00,NNE,13,4.0,11.0,0,0.00,,,0.03,866.000000,,2013-03-31 01:22:00,
2013-03-30 15:32:00,74.0,-25.0,-100.00,NNE,13,4.0,11.0,0,0.00,,,0.03,866.000000,,2013-03-31 01:32:00,
2013-03-30 15:42:00,74.0,-25.0,-100.00,NNE,13,4.0,11.0,0,0.00,,,0.03,866.000000,,2013-03-31 01:42:00,
2013-03-30 15:51:00,72.0,-26.0,-100.00,ENE,69,3.0,10.0,0,0.00,,,0.03,706.000000,,2013-03-31 01:51:00,
2013-03-30 16:12:00,72.0,-26.0,-100.00,ENE,69,3.0,10.0,0,0.00,,,0.03,706.000000,,2013-03-31 02:12:00,
2013-03-30 16:22:00,72.0,-26.0,-100.00,ENE,69,3.0,10.0,0,0.00,,,0.03,706.000000,,2013-03-31 02:22:00,
2013-03-30 16:32:00,72.0,-26.0,-100.00,ENE,69,3.0,10.0,0,0.00,,,0.03,706.000000,,2013-03-31 02:32:00,
2013-03-30 16:42:00,72.0,-26.0,-100.00,ENE,69,3.0,10.0,0,0.00,,,0.03,706.000000,,2013-03-31 02:42:00,
2013-03-30 16:51:00,69.0,-28.0,-100.00,NE,39,2.0,8.0,0,0.00,,,0.03,332.000000,,2013-03-31 02:51:00,
2013-03-30 17:12:00,69.0,-28.0,-100.00,NE,39,2.0,8.0,0,0.00,,,0.03,332.000000,,2013-03-31 03:12:00,
2013-03-30 17:22:00,69.0,-28.0,-100.00,NE,39,2.0,8.0,0,0.00,,,0.03,332.000000,,2013-03-31 03:22:00,
2013-03-30 17:32:00,69.0,-28.0,-100.00,NE,39,2.0,8.0,0,0.00,,,0.03,332.000000,,2013-03-31 03:32:00,
2013-03-30 17:43:00,69.0,-28.0,-100.00,NE,39,2.0,8.0,0,0.00,,,0.03,332.000000,,2013-03-31 03:43:00,
2013-03-30 17:51:00,65.0,-30.0,-100.00,ENE,64,2.0,6.0,0,0.00,,,0.03,87.000000,,2013-03-31 03:51:00,
2013-03-30 18:23:00,65.0,-30.0,-100.00,ENE,64,2.0,6.0,0,0.00,,,0.03,87.000000,,2013-03-31 04:23:00,
2013-03-30 18:32:00,65.0,-30.0,-100.00,ENE,64,2.0,6.0,0,0.00,,,0.03,87.000000,,2013-03-31 04:32:00,
2013-03-30 18:42:00,65.0,-30.0,-100.00,ENE,64,2.0,6.0,0,0.00,,,0.03,87.000000,,2013-03-31 04:42:00,
2013-03-30 18:51:00,64.0,-31.0,-100.00,ENE,58,2.0,10.0,0,0.00,,,0.03,15.000000,,2013-03-31 04:51:00,
2013-03-30 19:12:00,64.0,-31.0,-100.00,ENE,58,2.0,10.0,0,0.00,,,0.03,15.000000,,2013-03-31 05:12:00,
2013-03-30 19:22:00,64.0,-31.0,-100.00,ENE,58,2.0,10.0,0,0.00,,,0.03,15.000000,,2013-03-31 05:22:00,
2013-03-30 19:32:00,64.0,-31.0,-100.00,ENE,58,2.0,10.0,0,0.00,,,0.03,15.000000,,2013-03-31 05:32:00,
2013-03-30 19:42:00,64.0,-31.0,-100.00,ENE,58,2.0,10.0,0,0.00,,,0.03,15.000000,,2013-03-31 05:42:00,
2013-03-30 19:51:00,62.0,-6.0,-100.00,ENE,64,2.0,8.0,6,0.00,,,0.03,0.000000,,2013-03-31 05:51:00,
2013-03-30 20:22:00,62.0,-6.0,-100.00,ENE,64,2.0,8.0,6,0.00,,,0.03,0.000000,,2013-03-31 06:22:00,
2013-03-30 20:32:00,62.0,-6.0,-100.00,ENE,64,2.0,8.0,6,0.00,,,0.03,0.000000,,2013-03-31 06:32:00,
2013-03-30 20:42:00,62.0,-6.0,-100.00,ENE,64,2.0,8.0,6,0.00,,,0.03,0.000000,,2013-03-31 06:42:00,
2013-03-30 20:51:00,62.0,0.0,-100.00,NE,54,2.0,7.0,8,0.01,,,0.04,0.000000,,2013-03-31 06:51:00,
2013-03-30 21:12:00,62.0,0.0,-100.00,NE,54,2.0,7.0,8,0.01,,,0.04,0.000000,,2013-03-31 07:12:00,
2013-03-30 21:22:00,62.0,0.0,-100.00,NE,54,2.0,7.0,8,0.01,,,0.04,0.000000,,2013-03-31 07:22:00,
2013-03-30 21:32:00,62.0,0.0,-100.00,NE,54,2.0,7.0,8,0.01,,,0.04,0.000000,,2013-03-31 07:32:00,
2013-03-30 21:42:00,62.0,0.0,-100.00,NE,54,2.0,7.0,8,0.01,,,0.04,0.000000,,2013-03-31 07:42:00,
2013-03-30 21:51:00,62.0,-3.0,-100.00,NE,54,3.0,7.0,7,0.00,,,0.04,0.000000,,2013-03-31 07:51:00,
2013-03-30 22:22:00,62.0,-3.0,-100.00,NE,54,3.0,7.0,7,0.00,,,0.04,0.000000,,2013-03-31 08:22:00,
2013-03-30 22:32:00,62.0,-3.0,-100.00,NE,54,3.0,7.0,7,0.00,,,0.04,0.000000,,2013-03-31 08:32:00,
2013-03-30 22:42:00,62.0,-3.0,-100.00,NE,54,3.0,7.0,7,0.00,,,0.04,0.000000,,2013-03-31 08:42:00,
2013-03-30 22:51:00,60.0,-33.0,-100.00,ENE,64,2.0,10.0,0,0.00,,,0.04,0.000000,,2013-03-31 08:51:00,
2013-03-30 23:12:00,60.0,-33.0,-100.00,ENE,64,2.0,10.0,0,0.00,,,0.04,0.000000,,2013-03-31 09:12:00,
2013-03-30 23:22:00,60.0,-33.0,-100.00,ENE,64,2.0,10.0,0,0.00,,,0.04,0.000000,,2013-03-31 09:22:00,
2013-03-30 23:32:00,60.0,-33.0,-100.00,ENE,64,2.0,10.0,0,0.00,,,0.04,0.000000,,2013-03-31 09:32:00,
2013-03-30 23:42:00,60.0,-33.0,-100.00,ENE,64,2.0,10.0,0,0.00,,,0.04,0.000000,,2013-03-31 09:42:00,
2013-03-30 23:51:00,61.0,-33.0,-100.00,ENE,63,2.0,7.0,0,0.00,,,0.04,0.000000,,2013-03-31 09:51:00,